Time;durP1;ratioP1;P1;durP2;ratioP2;P2;SDS_P1;SDS_P2;PMS_P1;PMS_P2;Temp;Humidity;BMP_temperature;BMP_pressure;BME280_temperature;BME280_humidity;BME280_pressure;Samples;Min_cycle;Max_cycle;Signal;HPM_P1;HPM_P2
2022/02/12 00:02:24;;;;;;;;;71.33;56.33;;;;;4.19;72.24;103079.22;5052283;28;45769;-72
2022/02/12 00:04:49;;;;;;;;;72.00;50.75;;;;;4.17;72.09;103081.78;5053487;28;45771;-72
2022/02/12 00:07:14;;;;;;;;;64.75;48.75;;;;;4.18;72.38;103087.88;5052433;28;45753;-72
2022/02/12 00:09:40;;;;;;;;;59.67;51.00;;;;;4.17;72.18;103080.91;5052547;28;45564;-71
2022/02/12 00:12:05;;;;;;;;;58.50;47.75;;;;;4.15;72.24;103083.47;5052480;28;45971;-72
2022/02/12 00:14:31;;;;;;;;;61.50;48.50;;;;;4.11;72.28;103076.44;5052864;28;45526;-72
2022/02/12 00:16:56;;;;;;;;;66.00;50.25;;;;;4.13;72.25;103071.28;5054867;28;45305;-72
2022/02/12 00:19:22;;;;;;;;;67.00;52.00;;;;;4.12;72.27;103066.91;5052738;28;45305;-72
2022/02/12 00:21:47;;;;;;;;;55.75;48.75;;;;;4.11;72.07;103063.44;5051905;28;46260;-73
2022/02/12 00:24:13;;;;;;;;;65.00;49.00;;;;;4.11;72.02;103065.16;5052919;28;45415;-73
2022/02/12 00:26:38;;;;;;;;;65.50;48.25;;;;;4.08;72.12;103066.00;5056144;28;45535;-73
2022/02/12 00:29:03;;;;;;;;;61.00;49.00;;;;;4.07;72.01;103064.25;5057202;28;45406;-73
2022/02/12 00:31:29;;;;;;;;;63.25;50.75;;;;;4.01;72.12;103052.78;5056634;28;46011;-73
2022/02/12 00:33:55;;;;;;;;;74.75;52.25;;;;;4.03;72.43;103056.34;5055123;28;45633;-73
2022/02/12 00:36:20;;;;;;;;;61.25;47.75;;;;;3.98;72.06;103056.22;5054214;28;45447;-72
2022/02/12 00:38:46;;;;;;;;;62.50;45.00;;;;;3.99;72.64;103054.50;5054680;28;45532;-73
2022/02/12 00:41:11;;;;;;;;;65.50;50.50;;;;;3.98;72.48;103045.81;5054607;28;46025;-73
2022/02/12 00:43:37;;;;;;;;;58.50;46.00;;;;;3.98;72.22;103057.97;5055457;28;45363;-73
2022/02/12 00:46:03;;;;;;;;;50.50;40.75;;;;;3.96;72.18;103047.50;5055778;28;45388;-73
2022/02/12 00:48:28;;;;;;;;;66.75;47.75;;;;;3.94;72.15;103046.59;5055626;28;45786;-73
2022/02/12 00:50:59;;;;;;;;;59.00;46.00;;;;;3.92;72.17;103043.97;5055192;28;46343;-73
2022/02/12 00:53:24;;;;;;;;;62.50;44.75;;;;;3.89;72.78;103038.69;5055859;28;45291;-73
2022/02/12 00:55:50;;;;;;;;;47.25;41.75;;;;;3.86;72.79;103041.25;5057629;28;45664;-73
2022/02/12 00:58:15;;;;;;;;;60.75;44.25;;;;;3.87;72.78;103035.19;5055579;28;45242;-73
2022/02/12 01:00:40;;;;;;;;;55.00;45.00;;;;;3.87;72.80;103036.91;5054816;28;58263;-73
2022/02/12 01:03:05;;;;;;;;;56.75;42.25;;;;;3.86;73.24;103041.25;5053488;28;45397;-73
2022/02/12 01:05:31;;;;;;;;;55.00;43.67;;;;;3.86;73.04;103041.25;5054878;28;45369;-73
2022/02/12 01:07:56;;;;;;;;;54.75;45.25;;;;;3.86;73.27;103035.13;5057514;28;45222;-73
2022/02/12 01:10:21;;;;;;;;;53.50;41.50;;;;;3.87;73.41;103039.50;5055513;28;46218;-73
2022/02/12 01:12:47;;;;;;;;;47.00;39.25;;;;;3.85;73.51;103022.97;5055145;28;45553;-73
2022/02/12 01:15:12;;;;;;;;;45.50;39.25;;;;;3.87;73.41;103026.50;5053796;28;45286;-73
2022/02/12 01:17:38;;;;;;;;;42.50;39.50;;;;;3.87;73.06;103019.59;5055611;28;45243;-73
2022/02/12 01:20:04;;;;;;;;;43.00;36.25;;;;;3.87;73.33;103010.91;5056069;28;45503;-73
2022/02/12 01:22:29;;;;;;;;;47.75;39.00;;;;;3.86;73.25;103009.13;5055816;28;45985;-73
2022/02/12 01:24:55;;;;;;;;;35.25;29.25;;;;;3.85;73.51;103013.44;5055219;28;45410;-73
2022/02/12 01:27:20;;;;;;;;;42.50;35.50;;;;;3.91;73.40;103007.50;5054988;28;45452;-73
2022/02/12 01:29:45;;;;;;;;;45.25;41.25;;;;;3.92;73.29;103015.34;5055184;28;46033;-73
2022/02/12 01:32:11;;;;;;;;;52.75;40.75;;;;;3.92;73.34;103006.69;5055289;28;45557;-73
2022/02/12 01:34:37;;;;;;;;;52.75;41.50;;;;;3.95;73.23;102998.03;5052462;28;45505;-72
2022/02/12 01:37:04;;;;;;;;;39.25;32.50;;;;;3.97;73.33;102991.13;5055293;28;45361;-73
2022/02/12 01:39:29;;;;;;;;;40.00;34.00;;;;;3.95;73.13;102985.03;5054696;28;46271;-73
2022/02/12 01:41:55;;;;;;;;;35.75;29.00;;;;;3.95;73.34;102985.91;5054778;28;45701;-73
2022/02/12 01:44:30;;;;;;;;;32.25;30.75;;;;;3.96;73.36;102994.59;5054782;28;45331;-73
2022/02/12 01:46:55;;;;;;;;;35.50;31.50;;;;;3.95;73.25;102995.44;5052617;28;45230;-73
2022/02/12 01:49:21;;;;;;;;;38.00;33.50;;;;;3.93;73.13;102991.09;5054460;28;45659;-73
2022/02/12 01:51:46;;;;;;;;;39.50;30.50;;;;;3.94;73.08;102984.16;5054960;28;45391;-73
2022/02/12 01:54:11;;;;;;;;;37.00;28.75;;;;;3.95;73.53;102987.63;5053235;28;45543;-73
2022/02/12 01:56:37;;;;;;;;;39.00;33.00;;;;;3.95;73.04;102982.44;5054670;28;45511;-73
2022/02/12 01:59:02;;;;;;;;;44.25;32.25;;;;;3.97;73.66;102983.31;5055949;28;47972;-73
2022/02/12 02:01:27;;;;;;;;;35.75;31.00;;;;;3.97;73.23;102983.31;5054366;28;45282;-73
2022/02/12 02:03:53;;;;;;;;;41.00;35.25;;;;;3.91;73.39;102966.78;5053745;28;45492;-73
2022/02/12 02:06:18;;;;;;;;;31.00;28.25;;;;;3.95;73.22;102978.09;5054620;28;45529;-73
2022/02/12 02:08:44;;;;;;;;;49.75;35.75;;;;;3.95;73.33;102965.09;5053913;28;46505;-73
2022/02/12 02:11:10;;;;;;;;;50.75;42.00;;;;;3.96;73.28;102972.03;5054938;28;45435;-73
2022/02/12 02:13:35;;;;;;;;;41.75;34.50;;;;;3.95;73.30;102969.44;5056159;28;45618;-73
2022/02/12 02:16:00;;;;;;;;;35.25;34.25;;;;;3.95;73.20;102959.88;5053888;28;45574;-73
2022/02/12 02:18:26;;;;;;;;;39.25;35.50;;;;;3.97;73.24;102944.31;5053815;28;45566;-72
2022/02/12 02:20:51;;;;;;;;;36.75;32.00;;;;;3.92;73.77;102939.03;5052913;28;45467;-73
2022/02/12 02:23:18;;;;;;;;;43.50;39.00;;;;;3.97;73.36;102939.09;5054071;28;45472;-73
2022/02/12 02:25:43;;;;;;;;;44.25;36.25;;;;;3.99;73.61;102946.09;5056138;28;45469;-73
2022/02/12 02:28:08;;;;;;;;;40.25;36.25;;;;;4.00;73.45;102940.03;5053738;28;47181;-72
2022/02/12 02:30:34;;;;;;;;;31.75;31.00;;;;;4.01;73.71;102933.13;5051967;28;45741;-73
2022/02/12 02:32:59;;;;;;;;;37.75;30.50;;;;;4.02;73.63;102930.56;5052579;28;45435;-73
2022/02/12 02:35:25;;;;;;;;;43.50;30.25;;;;;4.05;73.30;102919.31;5037444;28;45326;-73
2022/02/12 02:37:51;;;;;;;;;34.00;31.50;;;;;4.06;72.95;102924.56;5055463;28;46858;-73
2022/02/12 02:40:18;;;;;;;;;42.25;32.25;;;;;4.08;72.94;102920.28;5053714;28;45397;-73
2022/02/12 02:42:49;;;;;;;;;36.00;34.25;;;;;4.08;72.94;102917.66;5053872;28;45453;-72
2022/02/12 02:45:16;;;;;;;;;36.25;31.50;;;;;4.09;73.08;102916.81;5053180;28;45346;-73
2022/02/12 02:47:42;;;;;;;;;43.00;29.25;;;;;4.08;73.08;102912.47;5053697;28;46155;-73
2022/02/12 02:58:43;;;;;;;;;37.50;30.00;;;;;3.97;72.99;102887.06;5053932;28;45794;-73
2022/02/12 03:01:16;;;;;;;;;39.50;33.00;;;;;3.99;73.00;102885.41;5050882;28;45300;-73
2022/02/12 03:03:43;;;;;;;;;46.25;38.25;;;;;3.96;72.92;102883.59;5053123;28;45665;-73
2022/02/12 03:06:10;;;;;;;;;35.50;28.50;;;;;3.95;73.22;102886.19;5053426;28;45456;-73
2022/02/12 03:08:36;;;;;;;;;37.00;35.00;;;;;3.92;73.55;102882.69;5053255;28;46118;-73
2022/02/12 03:11:04;;;;;;;;;35.25;29.75;;;;;3.89;72.96;102877.41;5055237;28;45825;-73
2022/02/12 03:13:30;;;;;;;;;39.00;31.75;;;;;3.88;73.43;102867.84;5054373;28;45518;-73
2022/02/12 03:15:56;;;;;;;;;46.25;38.25;;;;;3.83;73.19;102861.69;5052889;28;45458;-73
2022/02/12 03:18:21;;;;;;;;;35.00;31.25;;;;;3.82;73.61;102857.34;5053231;28;45502;-73
2022/02/12 03:20:47;;;;;;;;;28.75;27.25;;;;;3.79;73.38;102854.66;5053295;28;45316;-73
2022/02/12 03:23:12;;;;;;;;;20.75;17.75;;;;;3.80;73.09;102864.22;5053507;28;45546;-73
2022/02/12 03:25:38;;;;;;;;;19.25;15.00;;;;;3.81;72.83;102852.09;5055323;28;45259;-73
2022/02/12 03:28:05;;;;;;;;;16.25;13.50;;;;;3.82;73.35;102851.28;5053008;28;45550;-73
2022/02/12 03:30:42;;;;;;;;;23.75;20.75;;;;;3.83;72.96;102847.81;5052050;28;45675;-73
2022/02/12 03:33:08;;;;;;;;;19.50;15.50;;;;;3.81;72.70;102853.00;5053087;28;45748;-73
2022/02/12 03:35:34;;;;;;;;;13.50;11.50;;;;;3.80;72.80;102840.81;5053224;28;45385;-73
2022/02/12 03:38:20;;;;;;;;;22.50;17.00;;;;;3.81;72.92;102847.78;5054791;28;45628;-73
2022/02/12 03:40:48;;;;;;;;;18.50;15.50;;;;;3.81;72.67;102840.00;5053832;28;46071;-73
2022/02/12 03:43:14;;;;;;;;;19.25;17.75;;;;;3.83;72.39;102840.88;5052925;28;45555;-73
2022/02/12 03:45:40;;;;;;;;;23.75;17.00;;;;;3.83;72.81;102834.81;5052822;28;45842;-73
2022/02/12 03:48:06;;;;;;;;;15.00;12.00;;;;;3.82;72.37;102836.53;5052774;28;45955;-73
2022/02/12 03:50:33;;;;;;;;;15.00;12.00;;;;;3.84;72.71;102840.03;5051682;28;45415;-73
2022/02/12 03:52:59;;;;;;;;;15.25;12.25;;;;;3.82;72.82;102825.25;5054826;28;45452;-73
2022/02/12 03:55:25;;;;;;;;;14.25;11.50;;;;;3.77;72.57;102825.19;5053811;28;45510;-73
2022/02/12 03:57:51;;;;;;;;;17.25;14.25;;;;;3.76;73.04;102830.31;5055311;28;45299;-73
2022/02/12 04:00:17;;;;;;;;;24.00;15.50;;;;;3.72;72.79;102831.13;5059250;28;45420;-73
2022/02/12 04:02:43;;;;;;;;;18.50;15.00;;;;;3.70;73.11;102827.63;5058122;28;45479;-73
2022/02/12 04:05:10;;;;;;;;;13.75;10.75;;;;;3.66;73.00;102827.56;5060446;28;45452;-73
2022/02/12 04:07:40;;;;;;;;;12.25;11.25;;;;;3.63;72.66;102814.50;5061186;28;47284;-73
2022/02/12 04:10:07;;;;;;;;;17.25;14.00;;;;;3.61;72.90;102817.94;5059343;28;45803;-73
2022/02/12 04:12:33;;;;;;;;;20.25;15.00;;;;;3.58;73.18;102810.94;5058868;28;45331;-73
2022/02/12 04:14:58;;;;;;;;;20.50;15.50;;;;;3.55;72.83;102807.41;5059934;28;45606;-73
2022/02/12 04:17:24;;;;;;;;;11.25;11.25;;;;;3.50;73.15;102799.53;5058361;28;45810;-73
2022/02/12 04:19:50;;;;;;;;;16.00;14.00;;;;;3.47;73.37;102799.47;5060774;28;45948;-73
2022/02/12 04:22:16;;;;;;;;;19.25;16.00;;;;;3.46;73.20;102791.66;5059302;28;45378;-73
2022/02/12 04:24:41;;;;;;;;;19.75;18.00;;;;;3.44;73.09;102789.00;5059171;28;45516;-73
2022/02/12 04:27:07;;;;;;;;;14.25;11.00;;;;;3.42;73.01;102787.22;5058972;28;46061;-73
2022/02/12 04:29:32;;;;;;;;;18.75;10.75;;;;;3.36;73.58;102780.19;5054971;28;45459;-73
2022/02/12 04:31:57;;;;;;;;;21.25;15.75;;;;;3.37;73.34;102779.34;5060589;28;45384;-73
2022/02/12 04:34:23;;;;;;;;;15.75;12.00;;;;;3.34;73.76;102777.56;5059284;28;45514;-73
2022/02/12 04:36:50;;;;;;;;;14.00;13.33;;;;;3.33;73.44;102774.91;5059258;28;45506;-73
2022/02/12 04:39:16;;;;;;;;;19.75;14.00;;;;;3.33;73.95;102769.72;5059022;28;45495;-73
2022/02/12 04:41:41;;;;;;;;;21.00;15.50;;;;;3.29;73.91;102767.91;5058805;28;45526;-73
2022/02/12 04:44:06;;;;;;;;;12.67;12.33;;;;;3.29;73.58;102767.91;5059997;28;45413;-72
2022/02/12 04:46:32;;;;;;;;;13.25;13.25;;;;;3.27;73.42;102761.81;5060336;28;46106;-72
2022/02/12 04:48:57;;;;;;;;;14.00;14.00;;;;;3.23;73.50;102757.38;5058917;28;45390;-73
2022/02/12 04:51:22;;;;;;;;;16.75;14.75;;;;;3.20;73.37;102760.81;5058939;28;45361;-72
2022/02/12 04:53:49;;;;;;;;;11.75;11.00;;;;;3.16;73.62;102756.41;5058906;28;45472;-73
2022/02/12 04:56:15;;;;;;;;;15.00;11.25;;;;;3.12;73.37;102758.06;5058977;28;47066;-72
2022/02/12 04:58:40;;;;;;;;;17.00;14.00;;;;;3.12;73.63;102773.63;5059512;28;45736;-72
2022/02/12 05:01:06;;;;;;;;;14.50;13.25;;;;;3.09;73.92;102773.59;5057772;28;47590;-73
2022/02/12 05:03:31;;;;;;;;;15.75;12.50;;;;;3.08;74.37;102771.84;5058324;28;45451;-73
2022/02/12 05:05:56;;;;;;;;;15.00;12.50;;;;;3.03;74.43;102770.00;5058445;28;45978;-73
2022/02/12 05:08:22;;;;;;;;;15.00;11.00;;;;;3.05;73.92;102773.50;5057651;28;45360;-73
2022/02/12 05:10:47;;;;;;;;;11.67;11.67;;;;;3.04;74.29;102774.34;5056288;28;45402;-73
2022/02/12 05:13:13;;;;;;;;;14.00;11.00;;;;;3.01;74.77;102766.47;5055111;28;45681;-73
2022/02/12 05:15:38;;;;;;;;;20.75;15.75;;;;;2.97;74.44;102765.53;5055016;28;46910;-73
2022/02/12 05:18:03;;;;;;;;;18.75;14.25;;;;;2.96;74.72;102757.72;5055084;28;45413;-73
2022/02/12 05:20:29;;;;;;;;;13.50;12.75;;;;;2.95;74.83;102763.75;5055321;28;45508;-73
2022/02/12 05:22:54;;;;;;;;;12.00;12.00;;;;;2.92;74.87;102751.56;5057241;28;48681;-73
2022/02/12 05:25:19;;;;;;;;;11.67;9.33;;;;;2.92;74.88;102756.75;5054330;28;57459;-73
2022/02/12 05:27:45;;;;;;;;;12.50;12.25;;;;;2.91;74.98;102761.94;5054872;28;45444;-72
2022/02/12 05:30:11;;;;;;;;;13.00;10.50;;;;;2.89;75.04;102754.13;5054481;28;45407;-73
2022/02/12 05:32:36;;;;;;;;;12.75;7.75;;;;;2.88;75.19;102748.06;5054699;28;45604;-73
2022/02/12 05:35:02;;;;;;;;;16.25;12.50;;;;;2.87;75.13;102748.91;5056130;28;56230;-72
2022/02/12 05:37:27;;;;;;;;;13.75;8.00;;;;;2.86;75.40;102743.66;5054033;28;45801;-72
2022/02/12 05:39:53;;;;;;;;;15.50;11.50;;;;;2.83;75.39;102735.81;5054813;28;45498;-72
2022/02/12 05:42:18;;;;;;;;;11.67;10.00;;;;;2.81;75.22;102737.50;5054522;28;49586;-72
2022/02/12 05:44:43;;;;;;;;;17.33;12.67;;;;;2.79;75.34;102744.38;5054636;28;47765;-72
2022/02/12 05:47:08;;;;;;;;;14.00;10.00;;;;;2.72;75.21;102729.53;5055915;28;45261;-72
2022/02/12 05:49:34;;;;;;;;;13.00;13.00;;;;;2.71;75.35;102740.72;5054409;28;45331;-73
2022/02/12 05:51:59;;;;;;;;;12.25;10.00;;;;;2.70;75.43;102738.97;5053419;28;45510;-72
2022/02/12 05:54:24;;;;;;;;;17.00;13.75;;;;;2.66;75.58;102732.84;5054389;28;45398;-73
2022/02/12 05:56:50;;;;;;;;;15.00;10.00;;;;;2.63;75.74;102724.13;5054286;28;55901;-73
2022/02/12 05:59:18;;;;;;;;;15.67;8.67;;;;;2.60;75.71;102722.31;5054684;28;45320;-73
2022/02/12 06:01:44;;;;;;;;;14.00;13.00;;;;;2.57;75.88;102717.09;5056003;28;45621;-73
2022/02/12 06:04:09;;;;;;;;;16.25;14.00;;;;;2.57;76.01;102715.38;5054104;28;45486;-73
2022/02/12 06:06:34;;;;;;;;;13.50;11.50;;;;;2.55;75.99;102704.06;5054370;28;45454;-73
2022/02/12 06:09:00;;;;;;;;;20.00;14.75;;;;;2.57;75.75;102701.53;5054222;28;45703;-73
2022/02/12 06:11:25;;;;;;;;;17.25;14.25;;;;;2.56;75.59;102702.38;5054737;28;45503;-73
2022/02/12 06:13:51;;;;;;;;;22.67;14.67;;;;;2.56;75.52;102703.25;5056114;28;45469;-73
2022/02/12 06:16:26;;;;;;;;;15.25;14.00;;;;;2.57;75.52;102704.97;5052824;28;45393;-73
2022/02/12 06:18:51;;;;;;;;;13.00;13.00;;;;;2.55;75.52;102703.19;5054360;28;45440;-73
2022/02/12 06:21:17;;;;;;;;;18.25;14.00;;;;;2.53;75.46;102697.97;5053682;28;45140;-73
2022/02/12 06:23:42;;;;;;;;;19.75;17.25;;;;;2.49;75.44;102693.53;5053753;28;45285;-73
2022/02/12 06:26:08;;;;;;;;;20.50;19.50;;;;;2.47;75.50;102678.81;5053639;28;45307;-72
2022/02/12 06:28:34;;;;;;;;;27.50;16.00;;;;;2.46;75.62;102692.63;5054229;28;45308;-72
2022/02/12 06:31:02;;;;;;;;;22.50;17.00;;;;;2.43;75.63;102695.16;5053905;28;45501;-72
2022/02/12 06:33:30;;;;;;;;;29.75;17.75;;;;;2.41;75.80;102689.06;5053553;28;46199;-72
2022/02/12 06:35:55;;;;;;;;;22.00;17.00;;;;;2.39;75.78;102690.72;5054105;28;45807;-72
2022/02/12 06:38:20;;;;;;;;;16.75;16.25;;;;;2.37;75.51;102695.00;5053853;28;45304;-72
2022/02/12 06:40:46;;;;;;;;;20.00;15.33;;;;;2.32;75.64;102692.31;5055954;28;45368;-72
2022/02/12 06:43:11;;;;;;;;;18.50;18.50;;;;;2.28;75.61;102685.28;5053801;28;45455;-72
2022/02/12 06:45:39;;;;;;;;;19.25;16.50;;;;;2.17;75.62;102677.28;5053756;28;45369;-72
2022/02/12 06:48:05;;;;;;;;;22.00;16.00;;;;;2.22;75.93;102687.75;5053960;28;45398;-72
2022/02/12 06:50:30;;;;;;;;;15.00;11.50;;;;;2.18;76.00;102681.63;5054184;28;45402;-72
2022/02/12 06:52:56;;;;;;;;;19.25;19.25;;;;;2.19;75.84;102685.94;5055324;28;46160;-72
2022/02/12 06:55:21;;;;;;;;;20.00;18.75;;;;;2.18;76.12;102684.22;5052065;28;45351;-72
2022/02/12 06:57:49;;;;;;;;;26.00;17.25;;;;;2.17;75.77;102684.19;5053515;28;45773;-72
2022/02/12 07:00:15;;;;;;;;;25.75;15.50;;;;;2.15;75.77;102693.66;5053278;28;45349;-73
2022/02/12 07:02:40;;;;;;;;;20.25;15.25;;;;;2.15;75.85;102686.75;5053336;28;46122;-73
2022/02/12 07:05:06;;;;;;;;;19.00;16.00;;;;;2.15;76.20;102681.56;5054245;28;48539;-73
2022/02/12 07:07:31;;;;;;;;;19.75;16.25;;;;;2.17;76.19;102691.97;5052759;28;45345;-73
2022/02/12 07:09:56;;;;;;;;;20.50;12.75;;;;;2.19;75.91;102693.72;5052265;28;45459;-73
2022/02/12 07:12:22;;;;;;;;;19.50;15.50;;;;;2.20;76.23;102679.94;5053340;28;45401;-73
2022/02/12 07:14:47;;;;;;;;;18.75;15.25;;;;;2.22;75.87;102686.03;5053894;28;45485;-73
2022/02/12 07:17:13;;;;;;;;;16.25;12.00;;;;;2.23;76.14;102685.19;5053531;28;49709;-73
2022/02/12 07:19:38;;;;;;;;;19.75;13.25;;;;;2.27;76.04;102692.22;5055548;28;45507;-73
2022/02/12 07:22:04;;;;;;;;;22.25;11.00;;;;;2.28;76.09;102687.88;5052950;28;47819;-73
2022/02/12 07:24:29;;;;;;;;;19.50;17.75;;;;;2.32;75.92;102692.31;5053079;28;45320;-73
2022/02/12 07:26:54;;;;;;;;;18.33;13.67;;;;;2.34;75.91;102694.09;5053328;28;47187;-73
2022/02/12 07:29:20;;;;;;;;;22.25;15.50;;;;;2.37;75.86;102687.22;5053296;28;45499;-73
2022/02/12 07:31:45;;;;;;;;;25.25;21.50;;;;;2.41;76.03;102683.88;5053818;28;46283;-73
2022/02/12 07:34:15;;;;;;;;;19.00;15.50;;;;;2.47;75.92;102684.00;5051017;28;45321;-73
2022/02/12 07:36:41;;;;;;;;;20.00;14.25;;;;;2.54;75.65;102685.88;5052735;28;45544;-73
2022/02/12 07:39:06;;;;;;;;;20.75;18.00;;;;;2.60;75.62;102686.00;5053058;28;45727;-73
2022/02/12 07:41:34;;;;;;;;;15.00;11.50;;;;;2.65;75.54;102671.38;5053177;28;45308;-72
2022/02/12 07:44:00;;;;;;;;;19.50;16.75;;;;;2.77;75.27;102684.66;5054690;28;45353;-72
2022/02/12 07:46:25;;;;;;;;;20.50;14.50;;;;;2.88;75.33;102683.13;5051912;28;45400;-73
2022/02/12 07:48:51;;;;;;;;;14.75;11.00;;;;;3.08;75.57;102677.44;5053373;28;45549;-73
2022/02/12 07:51:16;;;;;;;;;20.25;13.25;;;;;3.39;74.97;102678.88;5052051;28;46120;-73
2022/02/12 07:53:41;;;;;;;;;18.00;16.00;;;;;4.10;75.64;102681.78;5053283;28;45424;-73
2022/02/12 07:56:07;;;;;;;;;20.75;15.50;;;;;4.84;74.46;102678.44;5053689;28;45446;-73
2022/02/12 07:58:32;;;;;;;;;21.50;14.00;;;;;5.37;72.42;102678.13;5053822;28;45368;-68
2022/02/12 08:00:57;;;;;;;;;26.50;17.25;;;;;6.06;71.93;102673.53;5052216;28;45348;-72
2022/02/12 08:03:23;;;;;;;;;22.75;18.00;;;;;6.43;70.46;102678.97;5051431;28;45707;-72
2022/02/12 08:05:48;;;;;;;;;20.75;17.25;;;;;6.89;69.93;102666.09;5052247;28;45337;-72
2022/02/12 08:08:13;;;;;;;;;25.33;21.33;;;;;7.90;69.75;102667.09;5052918;28;45351;-73
2022/02/12 08:13:22;;;;;;;;;26.50;25.50;;;;;10.47;66.52;102670.78;5050406;28;45978;-73
2022/02/12 08:15:48;;;;;;;;;21.00;17.25;;;;;12.06;64.37;102671.09;5052612;28;47320;-73
2022/02/12 08:18:13;;;;;;;;;16.25;15.25;;;;;13.13;60.93;102666.25;5051640;28;45255;-73
2022/02/12 08:20:38;;;;;;;;;22.25;19.50;;;;;13.20;58.85;102673.09;5051337;28;45431;-73
2022/02/12 08:23:04;;;;;;;;;34.75;28.50;;;;;13.20;57.87;102667.81;5053509;28;45374;-72
2022/02/12 08:25:29;;;;;;;;;24.75;22.25;;;;;13.95;58.15;102668.66;5054210;28;45471;-72
2022/02/12 08:27:54;;;;;;;;;21.50;21.00;;;;;14.66;55.66;102666.72;5052242;28;45385;-72
2022/02/12 08:30:20;;;;;;;;;19.25;16.00;;;;;15.24;55.19;102649.91;5052275;28;46193;-72
2022/02/12 08:32:45;;;;;;;;;17.50;15.50;;;;;16.17;54.03;102654.75;5051440;28;45465;-72
2022/02/12 08:35:13;;;;;;;;;20.75;18.00;;;;;17.28;52.16;102646.13;5052403;28;45258;-73
2022/02/12 08:37:39;;;;;;;;;20.00;19.00;;;;;18.84;51.48;102651.75;5054091;28;45442;-73
2022/02/12 08:40:07;;;;;;;;;24.75;22.00;;;;;19.70;48.00;102646.63;5052357;28;45364;-73
2022/02/12 08:42:32;;;;;;;;;22.75;20.75;;;;;20.14;46.89;102653.25;5052016;28;45600;-73
2022/02/12 08:44:57;;;;;;;;;30.00;26.00;;;;;20.63;46.34;102637.31;5054186;28;45499;-73
2022/02/12 08:47:23;;;;;;;;;33.25;28.00;;;;;21.96;46.81;102642.97;5055941;28;45578;-71
2022/02/12 08:49:48;;;;;;;;;27.50;24.75;;;;;23.35;44.35;102636.81;5057198;28;45493;-73
2022/02/12 08:52:14;;;;;;;;;15.25;13.00;;;;;23.61;40.56;102627.00;5055177;28;50019;-73
2022/02/12 08:54:39;;;;;;;;;14.00;14.00;;;;;22.60;40.70;102629.16;5056488;28;45476;-73
2022/02/12 08:57:05;;;;;;;;;15.50;15.50;;;;;23.59;41.40;102629.75;5055416;28;45520;-73
2022/02/12 08:59:30;;;;;;;;;15.50;12.00;;;;;24.51;38.89;102628.78;5055653;28;46025;-73
2022/02/12 09:01:56;;;;;;;;;17.25;14.00;;;;;25.12;38.59;102628.84;5057443;28;45610;-73
2022/02/12 09:04:22;;;;;;;;;15.00;12.50;;;;;26.07;38.06;102622.41;5053619;28;45440;-73
2022/02/12 09:06:47;;;;;;;;;16.00;15.25;;;;;27.31;36.51;102625.81;5055499;28;45243;-73
2022/02/12 09:09:13;;;;;;;;;14.75;12.00;;;;;27.37;34.95;102616.34;5055089;28;45677;-73
2022/02/12 09:11:45;;;;;;;;;19.00;12.00;;;;;27.34;34.95;102625.53;5055370;28;45429;-74
2022/02/12 09:14:12;;;;;;;;;14.25;13.00;;;;;28.19;34.59;102627.25;5055539;28;45351;-73
2022/02/12 09:16:39;;;;;;;;;15.50;15.50;;;;;28.85;31.71;102620.38;5056420;28;45515;-73
2022/02/12 09:19:05;;;;;;;;;15.00;13.00;;;;;28.62;33.10;102618.06;5054814;28;45615;-73
2022/02/12 09:21:31;;;;;;;;;16.25;14.00;;;;;29.25;31.54;102610.47;5055061;28;45627;-73
2022/02/12 09:23:56;;;;;;;;;16.75;13.25;;;;;28.98;30.56;102612.03;5054262;28;45452;-73
2022/02/12 09:26:29;;;;;;;;;12.50;11.25;;;;;29.35;30.37;102611.31;5055305;28;45581;-73
2022/02/12 09:28:55;;;;;;;;;16.25;13.75;;;;;29.67;28.47;102611.00;5053502;28;46148;-73
2022/02/12 09:31:20;;;;;;;;;14.25;12.50;;;;;29.79;28.79;102601.72;5053392;28;45822;-73
2022/02/12 09:33:46;;;;;;;;;18.50;17.50;;;;;29.61;27.52;102600.78;5054880;28;45453;-74
2022/02/12 09:36:11;;;;;;;;;10.75;9.50;;;;;28.84;27.98;102594.31;5054060;28;45441;-74
2022/02/12 09:38:36;;;;;;;;;10.00;9.00;;;;;29.10;26.67;102597.34;5054884;28;47024;-73
2022/02/12 09:41:02;;;;;;;;;8.25;8.25;;;;;29.33;27.27;102592.47;5055105;28;45375;-72
2022/02/12 09:43:29;;;;;;;;;12.25;9.25;;;;;29.44;27.23;102590.63;5053831;28;45520;-73
2022/02/12 09:46:03;;;;;;;;;9.75;7.75;;;;;29.69;26.28;102592.75;5053456;28;45447;-74
2022/02/12 09:48:31;;;;;;;;;10.50;9.00;;;;;29.93;26.77;102594.13;5053775;28;46349;-73
2022/02/12 09:50:59;;;;;;;;;9.00;8.75;;;;;30.72;26.63;102591.78;5054780;28;45619;-74
2022/02/12 09:53:27;;;;;;;;;7.25;7.25;;;;;30.93;25.29;102589.59;5052873;28;45716;-73
2022/02/12 09:55:53;;;;;;;;;9.75;8.75;;;;;30.82;25.03;102586.28;5055493;28;45277;-73
2022/02/12 09:58:18;;;;;;;;;9.25;9.25;;;;;30.77;25.31;102583.16;5054632;28;47140;-73
2022/02/12 10:00:43;;;;;;;;;16.25;11.25;;;;;31.05;24.82;102582.06;5053816;28;45673;-73
2022/02/12 10:03:10;;;;;;;;;13.00;9.00;;;;;31.68;24.90;102581.06;5054198;28;45540;-73
2022/02/12 10:05:38;;;;;;;;;8.50;8.50;;;;;31.82;24.29;102579.66;5054781;28;45278;-73
2022/02/12 10:08:03;;;;;;;;;10.50;9.50;;;;;32.14;23.97;102573.53;5055605;28;45650;-74
2022/02/12 10:10:31;;;;;;;;;8.75;8.25;;;;;32.09;23.76;102565.84;5053769;28;45383;-74
2022/02/12 10:13:30;;;;;;;;;9.25;7.75;;;;;31.64;23.31;102563.41;5054812;28;45576;-72
2022/02/12 10:16:02;;;;;;;;;8.00;7.00;;;;;31.28;22.67;102568.91;5048924;28;45449;-71
2022/02/12 10:18:29;;;;;;;;;11.00;9.75;;;;;30.64;23.13;102568.09;5054169;28;45398;-71
2022/02/12 10:20:56;;;;;;;;;9.00;8.00;;;;;30.52;23.53;102560.31;5053041;28;45621;-71
2022/02/12 10:23:30;;;;;;;;;8.75;8.75;;;;;29.47;22.62;102555.13;5054479;28;45396;-69
2022/02/12 10:26:01;;;;;;;;;8.75;5.75;;;;;28.55;24.08;102555.50;5052193;28;45362;-71
2022/02/12 10:28:26;;;;;;;;;8.00;8.00;;;;;27.99;24.22;102547.94;5055282;28;45423;-73
2022/02/12 10:30:54;;;;;;;;;14.50;12.50;;;;;27.36;24.13;102547.97;5053537;28;45516;-73
2022/02/12 10:33:20;;;;;;;;;10.50;5.50;;;;;26.24;24.49;102543.75;5054076;28;45350;-72
2022/02/12 10:35:55;;;;;;;;;9.50;9.50;;;;;25.22;25.43;102544.59;5054685;28;45431;-74
2022/02/12 10:38:21;;;;;;;;;10.00;7.75;;;;;24.13;26.14;102543.69;5054024;28;46122;-74
2022/02/12 10:41:10;;;;;;;;;12.50;10.50;;;;;23.14;26.34;102538.03;5055962;28;45320;-75
2022/02/12 10:43:37;;;;;;;;;10.25;8.00;;;;;22.22;27.02;102529.78;5054676;28;45583;-74
2022/02/12 10:46:03;;;;;;;;;13.50;9.25;;;;;21.73;27.61;102534.66;5053939;28;45559;-75
2022/02/12 10:48:35;;;;;;;;;13.00;9.00;;;;;21.14;27.64;102529.22;5053666;28;45996;-73
2022/02/12 10:51:04;;;;;;;;;10.75;8.75;;;;;20.75;28.31;102529.75;5049257;28;45730;-74
2022/02/12 10:53:30;;;;;;;;;10.75;8.75;;;;;20.70;29.27;102526.47;5050954;28;45384;-74
2022/02/12 10:56:00;;;;;;;;;9.75;9.00;;;;;20.58;28.96;102517.34;5055977;28;45483;-74
2022/02/12 10:58:26;;;;;;;;;9.25;9.25;;;;;20.22;29.49;102520.25;5052498;28;45492;-76
2022/02/12 11:00:52;;;;;;;;;7.25;6.00;;;;;19.93;29.46;102525.34;5052154;28;45392;-74
2022/02/12 11:03:20;;;;;;;;;24.50;21.75;;;;;19.32;29.03;102512.56;5052292;28;45799;-75
2022/02/12 11:05:51;;;;;;;;;8.50;7.25;;;;;18.89;29.82;102497.88;5053962;28;45474;-75
2022/02/12 11:08:20;;;;;;;;;9.50;7.25;;;;;18.57;29.59;102515.41;5053588;28;46100;-73
2022/02/12 11:10:46;;;;;;;;;12.25;9.00;;;;;18.04;29.76;102514.34;5055595;28;45359;-73
2022/02/12 11:13:12;;;;;;;;;9.75;8.50;;;;;17.66;30.69;102511.59;5053007;28;45600;-74
2022/02/12 11:15:38;;;;;;;;;10.00;8.00;;;;;17.51;31.32;102506.94;5051360;28;45481;-71
2022/02/12 11:18:06;;;;;;;;;9.25;8.50;;;;;17.39;31.71;102496.84;5053322;28;46168;-70
2022/02/12 11:20:32;;;;;;;;;11.00;8.50;;;;;17.53;30.96;102501.56;5053562;28;45809;-74
2022/02/12 11:23:24;;;;;;;;;9.50;8.50;;;;;17.31;31.36;102486.53;5055656;28;45526;-73
2022/02/12 11:25:54;;;;;;;;;7.00;6.75;;;;;17.20;31.60;102492.31;5054703;28;45427;-72